Newport Beach, CA (92662)

7:46 PM PDT on July 06, 2015 (GMT -0700)
Irvine Terrace | | Change Station
CLOSE
Current Station
Personal Weather Station
Location: CORONA DEL MAR, CA
Elevation: 23 ft
Nearby Weather Stations

Elev 23 ft 33.60 °N, 117.88 °W | Updated 4 minutes ago

Partly Cloudy
Partly Cloudy
66.2 °F
Feels Like 66.2 °F
N
4.0
Wind Variable Wind from West
Gusts 10.0 mph

Today
High -- | Low -- °F
--% Chance of Precip.
Yesterday
High -- | Low -- °F
Precip. -- in
5:47 AM 8:05 PM
Waning Gibbous, 69% visible
Pressure 29.96 in
Visibility 10.0 miles
Clouds Few 1400 ft
Scattered Clouds 3500 ft
Dew Point 61 °F
Humidity 82%
Rainfall 0.00 in
Snow Depth Not available.
UV 1 out of 12
Pollen 3.10 out of 12
Air Quality Not available.
Flu Activity Not available.
METAR KSNA 070153Z 22007KT 10SM FEW014 SCT035 21/15 A2997 RMK AO2 SLP146 T02060150

More Conditions Fewer Conditions

Pressure 29.96 in
Visibility 10.0 miles
Clouds Few 1400 ft
Scattered Clouds 3500 ft
Dew Point 61 °F
Humidity 82%
Rainfall 0.00 in
Snow Depth Not available.
UV 1 out of 12
Pollen 3.10 out of 12
Air Quality Not available.
Flu Activity Not available.
METAR KSNA 070153Z 22007KT 10SM FEW014 SCT035 21/15 A2997 RMK AO2 SLP146 T02060150

More Conditions Fewer Conditions

10-Day Weather Forecast

×

Almanac

Astronomy

Jul. 06, 2015 Rise Set
Actual Time
Civil Twilight
Nautical Twilight
Astronomical Twilight
Moon
Length of Visible Light
Length of Day
Tomorrow will be .
, % of the Moon is Illuminated

Today's Extremes

State Highs State Lows

Community

WunderPhotos

Upload Photos

1,835,701 photos uploaded!

WunderBlogs® & News

Nearby

Air Quality

  Air Quality AQ Index Pollutant
Not available.

Snow Depth

Station Depth Elevation

Earthquake Activity

City Distance Mag. Time & Date
Minimum magnitude displayed is 2.5.

Coastal Water Temperatures

Place Temperature

Stations

Nearby Weather Stations

Station Location Temp. Windchill Dew Point Humidity Wind Precip. Elev Updated Type